Terminal Aerodrome Forecast
Issued by NWS Twin Cities, MN

Home | Current Version | Previous Version | Graphics & Text | Print | Product List | Glossary On
Versions: 1 2 3 4 5 6 7 8 9 10 11 12 13 14 15
000
FTUS43 KMPX 221100
TAFSTC
TAF
KSTC 221128Z 2212/2312 14009KT P6SM SCT250
     FM221300 16012G18KT P6SM SCT015 BKN050
     FM221700 17016G23KT P6SM SCT025 BKN040
     FM230000 16011KT P6SM SCT020 BKN120
     FM230200 17010KT 5SM -SHRA BR BKN020 OVC030
     FM230700 19006KT 6SM BR SCT015 OVC040=

USA.gov is the U.S. government's official web portal to all federal, state and local government web resources and services.